Storm Events Database

Event Details

Event Hail
Magnitude 0.75 in.
State KANSAS
County/Area CLARK
WFO DDC
Report Source Emergency Manager
NCDC Data Source CSV
Begin Date 2010-05-19 00:08:00.0 CST-6
Begin Location 5N ENGLEWOOD
Begin Lat/Lon 37.1/-99.98
End Date 2010-05-19 00:08:00.0 CST-6
Deaths Direct/Indirect 0/0 (fatality details below, when available...)
Injuries Direct/Indirect 0/0
Property Damage
Crop Damage
Episode Narrative A strong upper level jet maxima helped to support isentropic lift across the area as a surface trough edged eastward. Abundant moisture interacted with the features to produce widespread thunderstorms, some severe.
Event Narrative


     ‚Äč



All events for this episode:

Location County/Zone St. Date Time T.Z. Type Mag Dth Inj PrD CrD
Totals: 0 0 8.72K 0.00K
KISMET SEWARD CO. KS 05/18/2010 11:15 CST-6 Heavy Rain 0 0 0.00K 0.00K
WILBURTON MORTON CO. KS 05/18/2010 18:10 CST-6 Hail 0.88 in. 0 0 0.00K 0.00K
RICHFIELD MORTON CO. KS 05/18/2010 18:30 CST-6 Hail 1.00 in. 0 0 0.00K 0.00K
KENDALL HAMILTON CO. KS 05/18/2010 18:33 MST-7 Hail 2.75 in. 0 0 0.00K 0.00K
JOHNSON STANTON CO. KS 05/18/2010 18:40 CST-6 Hail 1.75 in. 0 0 0.00K 0.00K
STANTON CO ARPT STANTON CO. KS 05/18/2010 18:50 CST-6 Hail 1.00 in. 0 0 0.00K 0.00K
BIG BOW STANTON CO. KS 05/18/2010 18:55 CST-6 Hail 1.75 in. 0 0 0.00K 0.00K
BIG BOW STANTON CO. KS 05/18/2010 19:00 CST-6 Hail 0.88 in. 0 0 0.00K 0.00K
STANTON CO ARPT STANTON CO. KS 05/18/2010 19:00 CST-6 Hail 1.75 in. 0 0 0.00K 0.00K
LAKIN KEARNY CO. KS 05/18/2010 19:30 CST-6 Hail 1.75 in. 0 0 0.00K 0.00K
FETERITA STEVENS CO. KS 05/18/2010 19:37 CST-6 Hail 1.00 in. 0 0 0.00K 0.00K
(LBL)LIBERAL ARPT SEWARD CO. KS 05/18/2010 21:34 CST-6 Hail 1.75 in. 0 0 0.00K 0.00K
(LBL)LIBERAL ARPT SEWARD CO. KS 05/18/2010 21:50 CST-6 Hail 1.75 in. 0 0 0.00K 0.00K
HAYNE SEWARD CO. KS 05/18/2010 22:30 CST-6 Heavy Rain 0 0 0.00K 0.00K
HAYNE SEWARD CO. KS 05/18/2010 22:30 CST-6 Heavy Rain 0 0 0.00K 0.00K
FORD (ZONE) FORD (ZONE) KS 05/18/2010 22:35 CST-6 High Wind 65 kts. EG 0 0 0.12K 0.00K
KISMET SEWARD CO. KS 05/18/2010 22:43 CST-6 Hail 1.00 in. 0 0 0.00K 0.00K
KISMET SEWARD CO. KS 05/18/2010 22:48 CST-6 Hail 1.75 in. 0 0 0.60K 0.00K
KISMET SEWARD CO. KS 05/18/2010 23:00 CST-6 Flood 0 0 0.00K 0.00K
KISMET SEWARD CO. KS 05/18/2010 23:15 CST-6 Heavy Rain 0 0 0.00K 0.00K
MEADE MEADE CO. KS 05/18/2010 23:20 CST-6 Hail 1.00 in. 0 0 0.00K 0.00K
MEADE STATE PARK MEADE CO. KS 05/18/2010 23:20 CST-6 Hail 1.75 in. 0 0 8.00K 0.00K
MEADE MEADE CO. KS 05/18/2010 23:34 CST-6 Hail 2.00 in. 0 0 0.00K 0.00K
ENGLEWOOD CLARK CO. KS 05/19/2010 00:08 CST-6 Hail 0.75 in. 0 0 0.00K 0.00K
ACRES CLARK CO. KS 05/19/2010 00:11 CST-6 Hail 1.00 in. 0 0 0.00K 0.00K
ACRES CLARK CO. KS 05/19/2010 00:20 CST-6 Hail 1.00 in. 0 0 0.00K 0.00K
Totals: 0 0 8.72K 0.00K